sensor_id;sensor_type;location;lat;lon;timestamp;temperature;humidity
13052;DHT22;6592;47.484;9.726;2023-03-01T00:01:06;2.20;99.90
13052;DHT22;6592;47.484;9.726;2023-03-01T00:03:35;2.20;99.90
13052;DHT22;6592;47.484;9.726;2023-03-01T00:06:04;2.10;99.90
13052;DHT22;6592;47.484;9.726;2023-03-01T00:08:33;2.10;99.90
13052;DHT22;6592;47.484;9.726;2023-03-01T00:11:04;2.10;99.90
13052;DHT22;6592;47.484;9.726;2023-03-01T00:13:33;2.10;99.90
13052;DHT22;6592;47.484;9.726;2023-03-01T00:16:02;2.10;99.90
13052;DHT22;6592;47.484;9.726;2023-03-01T00:18:33;2.10;99.90
13052;DHT22;6592;47.484;9.726;2023-03-01T00:21:01;2.00;99.90
13052;DHT22;6592;47.484;9.726;2023-03-01T00:23:30;2.00;99.90
13052;DHT22;6592;47.484;9.726;2023-03-01T00:25:58;2.00;99.90
13052;DHT22;6592;47.484;9.726;2023-03-01T00:28:27;2.00;99.90
13052;DHT22;6592;47.484;9.726;2023-03-01T00:30:55;2.00;99.90
13052;DHT22;6592;47.484;9.726;2023-03-01T00:33:23;2.00;99.90
13052;DHT22;6592;47.484;9.726;2023-03-01T00:35:53;1.90;99.90
13052;DHT22;6592;47.484;9.726;2023-03-01T00:38:21;1.90;99.90
13052;DHT22;6592;47.484;9.726;2023-03-01T00:40:49;1.90;99.90
13052;DHT22;6592;47.484;9.726;2023-03-01T00:43:18;1.90;99.90
13052;DHT22;6592;47.484;9.726;2023-03-01T00:46:01;1.90;99.90
13052;DHT22;6592;47.484;9.726;2023-03-01T00:48:29;1.90;99.90
13052;DHT22;6592;47.484;9.726;2023-03-01T00:51:04;2.00;99.90
13052;DHT22;6592;47.484;9.726;2023-03-01T00:53:33;1.80;99.90
13052;DHT22;6592;47.484;9.726;2023-03-01T00:56:02;1.90;99.90
13052;DHT22;6592;47.484;9.726;2023-03-01T00:58:31;1.80;99.90
13052;DHT22;6592;47.484;9.726;2023-03-01T01:01:00;1.80;99.90
13052;DHT22;6592;47.484;9.726;2023-03-01T01:03:28;1.80;99.90
13052;DHT22;6592;47.484;9.726;2023-03-01T01:05:56;1.80;99.90
13052;DHT22;6592;47.484;9.726;2023-03-01T01:08:26;1.80;99.90
13052;DHT22;6592;47.484;9.726;2023-03-01T01:10:54;1.80;99.90
13052;DHT22;6592;47.484;9.726;2023-03-01T01:13:22;1.80;99.90
13052;DHT22;6592;47.484;9.726;2023-03-01T01:15:50;1.80;99.90
13052;DHT22;6592;47.484;9.726;2023-03-01T01:18:19;1.80;99.90
13052;DHT22;6592;47.484;9.726;2023-03-01T01:20:47;1.80;99.90
13052;DHT22;6592;47.484;9.726;2023-03-01T01:23:15;1.80;99.90
13052;DHT22;6592;47.484;9.726;2023-03-01T01:25:45;1.80;99.90
13052;DHT22;6592;47.484;9.726;2023-03-01T01:28:13;1.70;99.90
13052;DHT22;6592;47.484;9.726;2023-03-01T01:30:42;1.70;99.90
13052;DHT22;6592;47.484;9.726;2023-03-01T01:33:10;1.80;99.90
13052;DHT22;6592;47.484;9.726;2023-03-01T01:35:39;1.70;99.90
13052;DHT22;6592;47.484;9.726;2023-03-01T01:38:07;1.80;99.90
13052;DHT22;6592;47.484;9.726;2023-03-01T01:40:44;1.80;99.90
13052;DHT22;6592;47.484;9.726;2023-03-01T01:43:18;1.80;99.90
13052;DHT22;6592;47.484;9.726;2023-03-01T01:45:47;1.70;99.90
13052;DHT22;6592;47.484;9.726;2023-03-01T01:48:18;1.70;99.90
13052;DHT22;6592;47.484;9.726;2023-03-01T01:50:53;1.70;99.90
13052;DHT22;6592;47.484;9.726;2023-03-01T01:53:25;1.60;99.90
13052;DHT22;6592;47.484;9.726;2023-03-01T01:55:57;1.70;99.90
13052;DHT22;6592;47.484;9.726;2023-03-01T01:58:28;1.70;99.90
13052;DHT22;6592;47.484;9.726;2023-03-01T02:00:57;1.70;99.90
13052;DHT22;6592;47.484;9.726;2023-03-01T02:03:29;1.60;99.90
13052;DHT22;6592;47.484;9.726;2023-03-01T02:06:03;1.60;99.90
13052;DHT22;6592;47.484;9.726;2023-03-01T02:08:35;1.60;99.90
13052;DHT22;6592;47.484;9.726;2023-03-01T02:11:06;1.60;99.90
13052;DHT22;6592;47.484;9.726;2023-03-01T02:13:35;1.60;99.90
13052;DHT22;6592;47.484;9.726;2023-03-01T02:16:05;1.60;99.90
13052;DHT22;6592;47.484;9.726;2023-03-01T02:18:35;1.60;99.90
13052;DHT22;6592;47.484;9.726;2023-03-01T02:21:23;1.60;99.90
13052;DHT22;6592;47.484;9.726;2023-03-01T02:23:53;1.60;99.90
13052;DHT22;6592;47.484;9.726;2023-03-01T02:26:31;1.60;99.90
13052;DHT22;6592;47.484;9.726;2023-03-01T02:29:02;1.50;99.90
13052;DHT22;6592;47.484;9.726;2023-03-01T02:31:32;1.50;99.90
13052;DHT22;6592;47.484;9.726;2023-03-01T02:34:11;1.50;99.90
13052;DHT22;6592;47.484;9.726;2023-03-01T02:36:43;1.50;99.90
13052;DHT22;6592;47.484;9.726;2023-03-01T02:39:15;1.50;99.90
13052;DHT22;6592;47.484;9.726;2023-03-01T02:41:45;1.60;99.90
13052;DHT22;6592;47.484;9.726;2023-03-01T02:44:16;1.50;99.90
13052;DHT22;6592;47.484;9.726;2023-03-01T02:46:47;1.50;99.90
13052;DHT22;6592;47.484;9.726;2023-03-01T02:49:18;1.50;99.90
13052;DHT22;6592;47.484;9.726;2023-03-01T02:51:56;1.50;99.90
13052;DHT22;6592;47.484;9.726;2023-03-01T02:54:33;1.40;99.90
13052;DHT22;6592;47.484;9.726;2023-03-01T02:57:04;1.50;99.90
13052;DHT22;6592;47.484;9.726;2023-03-01T02:59:36;1.50;99.90
13052;DHT22;6592;47.484;9.726;2023-03-01T03:02:06;1.50;99.90
13052;DHT22;6592;47.484;9.726;2023-03-01T03:04:35;1.50;99.90
13052;DHT22;6592;47.484;9.726;2023-03-01T03:07:03;1.50;99.90
13052;DHT22;6592;47.484;9.726;2023-03-01T03:09:31;1.50;99.90
13052;DHT22;6592;47.484;9.726;2023-03-01T03:11:59;1.60;99.90
13052;DHT22;6592;47.484;9.726;2023-03-01T03:14:28;1.60;99.90
13052;DHT22;6592;47.484;9.726;2023-03-01T03:16:57;1.60;99.90
13052;DHT22;6592;47.484;9.726;2023-03-01T03:19:26;1.60;99.90
13052;DHT22;6592;47.484;9.726;2023-03-01T03:21:54;1.60;99.90
13052;DHT22;6592;47.484;9.726;2023-03-01T03:24:22;1.60;99.90
13052;DHT22;6592;47.484;9.726;2023-03-01T03:26:50;1.60;99.90
13052;DHT22;6592;47.484;9.726;2023-03-01T03:29:18;1.60;99.90
13052;DHT22;6592;47.484;9.726;2023-03-01T03:31:47;1.60;99.90
13052;DHT22;6592;47.484;9.726;2023-03-01T03:34:17;1.60;99.90
13052;DHT22;6592;47.484;9.726;2023-03-01T03:36:45;1.60;99.90
13052;DHT22;6592;47.484;9.726;2023-03-01T03:39:13;1.60;99.90
13052;DHT22;6592;47.484;9.726;2023-03-01T03:41:41;1.60;99.90
13052;DHT22;6592;47.484;9.726;2023-03-01T03:44:09;1.60;99.90
13052;DHT22;6592;47.484;9.726;2023-03-01T03:46:38;1.60;99.90
13052;DHT22;6592;47.484;9.726;2023-03-01T03:49:06;1.60;99.90
13052;DHT22;6592;47.484;9.726;2023-03-01T03:51:36;1.60;99.90
13052;DHT22;6592;47.484;9.726;2023-03-01T03:54:04;1.60;99.90
13052;DHT22;6592;47.484;9.726;2023-03-01T03:56:32;1.70;99.90
13052;DHT22;6592;47.484;9.726;2023-03-01T03:59:01;1.60;99.90
13052;DHT22;6592;47.484;9.726;2023-03-01T04:01:29;1.70;99.90
13052;DHT22;6592;47.484;9.726;2023-03-01T04:03:58;1.70;99.90
13052;DHT22;6592;47.484;9.726;2023-03-01T04:06:31;1.60;99.90
13052;DHT22;6592;47.484;9.726;2023-03-01T04:09:00;1.60;99.90
13052;DHT22;6592;47.484;9.726;2023-03-01T04:11:29;1.70;99.90
13052;DHT22;6592;47.484;9.726;2023-03-01T04:13:58;1.70;99.90
13052;DHT22;6592;47.484;9.726;2023-03-01T04:16:27;1.70;99.90
13052;DHT22;6592;47.484;9.726;2023-03-01T04:18:56;1.60;99.90
13052;DHT22;6592;47.484;9.726;2023-03-01T04:21:26;1.60;99.90
13052;DHT22;6592;47.484;9.726;2023-03-01T04:23:55;1.60;99.90
13052;DHT22;6592;47.484;9.726;2023-03-01T04:26:25;1.60;99.90
13052;DHT22;6592;47.484;9.726;2023-03-01T04:28:54;1.60;99.90
13052;DHT22;6592;47.484;9.726;2023-03-01T04:31:22;1.60;99.90
13052;DHT22;6592;47.484;9.726;2023-03-01T04:33:52;1.60;99.90
13052;DHT22;6592;47.484;9.726;2023-03-01T04:36:22;1.60;99.90
13052;DHT22;6592;47.484;9.726;2023-03-01T04:38:51;1.60;99.90
13052;DHT22;6592;47.484;9.726;2023-03-01T04:41:21;1.60;99.90
13052;DHT22;6592;47.484;9.726;2023-03-01T04:43:51;1.60;99.90
13052;DHT22;6592;47.484;9.726;2023-03-01T04:46:20;1.60;99.90
13052;DHT22;6592;47.484;9.726;2023-03-01T04:48:48;1.60;99.90
13052;DHT22;6592;47.484;9.726;2023-03-01T04:51:17;1.50;99.90
13052;DHT22;6592;47.484;9.726;2023-03-01T04:53:45;1.40;99.90
13052;DHT22;6592;47.484;9.726;2023-03-01T04:56:14;1.30;99.90
13052;DHT22;6592;47.484;9.726;2023-03-01T04:58:42;1.40;99.90
13052;DHT22;6592;47.484;9.726;2023-03-01T05:01:14;1.20;99.90
13052;DHT22;6592;47.484;9.726;2023-03-01T05:03:44;1.20;99.90
13052;DHT22;6592;47.484;9.726;2023-03-01T05:06:13;1.20;99.90
13052;DHT22;6592;47.484;9.726;2023-03-01T05:08:42;1.30;99.90
13052;DHT22;6592;47.484;9.726;2023-03-01T05:11:10;1.30;99.90
13052;DHT22;6592;47.484;9.726;2023-03-01T05:13:40;1.30;99.90
13052;DHT22;6592;47.484;9.726;2023-03-01T05:16:08;1.30;99.90
13052;DHT22;6592;47.484;9.726;2023-03-01T05:18:40;1.30;99.90
13052;DHT22;6592;47.484;9.726;2023-03-01T05:21:10;1.30;99.90
13052;DHT22;6592;47.484;9.726;2023-03-01T05:23:39;1.40;99.90
13052;DHT22;6592;47.484;9.726;2023-03-01T05:26:08;1.50;99.90
13052;DHT22;6592;47.484;9.726;2023-03-01T05:28:53;1.50;99.90
13052;DHT22;6592;47.484;9.726;2023-03-01T05:31:26;1.50;99.90
13052;DHT22;6592;47.484;9.726;2023-03-01T05:33:56;1.50;99.90
13052;DHT22;6592;47.484;9.726;2023-03-01T05:36:24;1.60;99.90
13052;DHT22;6592;47.484;9.726;2023-03-01T05:38:52;1.50;99.90
13052;DHT22;6592;47.484;9.726;2023-03-01T05:41:21;1.60;99.90
13052;DHT22;6592;47.484;9.726;2023-03-01T05:43:49;1.60;99.90
13052;DHT22;6592;47.484;9.726;2023-03-01T05:46:17;1.60;99.90
13052;DHT22;6592;47.484;9.726;2023-03-01T05:48:45;1.60;99.90
13052;DHT22;6592;47.484;9.726;2023-03-01T05:51:16;1.60;99.90
13052;DHT22;6592;47.484;9.726;2023-03-01T05:53:45;1.60;99.90
13052;DHT22;6592;47.484;9.726;2023-03-01T05:56:13;1.60;99.90
13052;DHT22;6592;47.484;9.726;2023-03-01T05:58:42;1.60;99.90
13052;DHT22;6592;47.484;9.726;2023-03-01T06:01:12;1.60;99.90
13052;DHT22;6592;47.484;9.726;2023-03-01T06:03:41;1.60;99.90
13052;DHT22;6592;47.484;9.726;2023-03-01T06:06:09;1.70;99.90
13052;DHT22;6592;47.484;9.726;2023-03-01T06:08:39;1.70;99.90
13052;DHT22;6592;47.484;9.726;2023-03-01T06:11:07;1.70;99.90
13052;DHT22;6592;47.484;9.726;2023-03-01T06:13:35;1.70;99.90
13052;DHT22;6592;47.484;9.726;2023-03-01T06:16:05;1.70;99.90
13052;DHT22;6592;47.484;9.726;2023-03-01T06:18:34;1.70;99.90
13052;DHT22;6592;47.484;9.726;2023-03-01T06:21:02;1.80;99.90
13052;DHT22;6592;47.484;9.726;2023-03-01T06:23:31;1.70;99.90
13052;DHT22;6592;47.484;9.726;2023-03-01T06:26:05;1.70;99.90
13052;DHT22;6592;47.484;9.726;2023-03-01T06:28:33;1.70;99.90
13052;DHT22;6592;47.484;9.726;2023-03-01T06:31:02;1.70;99.90
13052;DHT22;6592;47.484;9.726;2023-03-01T06:33:30;1.70;99.90
13052;DHT22;6592;47.484;9.726;2023-03-01T06:35:58;1.70;99.90
13052;DHT22;6592;47.484;9.726;2023-03-01T06:38:27;1.70;99.90
13052;DHT22;6592;47.484;9.726;2023-03-01T06:40:55;1.70;99.90
13052;DHT22;6592;47.484;9.726;2023-03-01T06:43:25;1.80;99.90
13052;DHT22;6592;47.484;9.726;2023-03-01T06:45:54;1.80;99.90
13052;DHT22;6592;47.484;9.726;2023-03-01T06:48:22;1.90;99.90
13052;DHT22;6592;47.484;9.726;2023-03-01T06:50:50;1.80;99.90
13052;DHT22;6592;47.484;9.726;2023-03-01T06:53:18;1.90;99.90
13052;DHT22;6592;47.484;9.726;2023-03-01T06:55:47;1.90;99.90
13052;DHT22;6592;47.484;9.726;2023-03-01T06:58:15;2.00;99.90
13052;DHT22;6592;47.484;9.726;2023-03-01T07:00:45;2.10;99.90
13052;DHT22;6592;47.484;9.726;2023-03-01T07:03:13;2.10;99.90
13052;DHT22;6592;47.484;9.726;2023-03-01T07:05:41;2.10;99.90
13052;DHT22;6592;47.484;9.726;2023-03-01T07:08:11;2.10;99.90
13052;DHT22;6592;47.484;9.726;2023-03-01T07:10:39;2.20;99.90
13052;DHT22;6592;47.484;9.726;2023-03-01T07:13:08;2.20;99.90
13052;DHT22;6592;47.484;9.726;2023-03-01T07:15:36;2.10;99.90
13052;DHT22;6592;47.484;9.726;2023-03-01T07:18:06;2.10;99.90
13052;DHT22;6592;47.484;9.726;2023-03-01T07:20:34;2.20;99.90
13052;DHT22;6592;47.484;9.726;2023-03-01T07:23:03;2.10;99.90
13052;DHT22;6592;47.484;9.726;2023-03-01T07:25:33;2.10;99.90
13052;DHT22;6592;47.484;9.726;2023-03-01T07:28:01;2.20;99.90
13052;DHT22;6592;47.484;9.726;2023-03-01T07:30:29;2.20;99.90
13052;DHT22;6592;47.484;9.726;2023-03-01T07:32:58;2.20;99.90
13052;DHT22;6592;47.484;9.726;2023-03-01T07:35:28;2.20;99.90
13052;DHT22;6592;47.484;9.726;2023-03-01T07:37:56;2.30;99.90
13052;DHT22;6592;47.484;9.726;2023-03-01T07:40:24;2.30;99.90
13052;DHT22;6592;47.484;9.726;2023-03-01T07:42:55;2.30;99.90
13052;DHT22;6592;47.484;9.726;2023-03-01T07:45:24;2.30;99.90
13052;DHT22;6592;47.484;9.726;2023-03-01T07:47:53;2.40;99.90
13052;DHT22;6592;47.484;9.726;2023-03-01T07:50:22;2.40;99.90
13052;DHT22;6592;47.484;9.726;2023-03-01T07:52:52;2.50;99.90
13052;DHT22;6592;47.484;9.726;2023-03-01T07:55:20;2.50;99.90
13052;DHT22;6592;47.484;9.726;2023-03-01T07:57:48;2.50;99.90
13052;DHT22;6592;47.484;9.726;2023-03-01T08:00:17;2.50;99.90
13052;DHT22;6592;47.484;9.726;2023-03-01T08:02:46;2.40;99.90
13052;DHT22;6592;47.484;9.726;2023-03-01T08:05:14;2.40;99.90
13052;DHT22;6592;47.484;9.726;2023-03-01T08:07:42;2.60;99.90
13052;DHT22;6592;47.484;9.726;2023-03-01T08:10:12;2.60;99.90
13052;DHT22;6592;47.484;9.726;2023-03-01T08:12:40;2.70;99.90
13052;DHT22;6592;47.484;9.726;2023-03-01T08:15:10;2.70;99.90
13052;DHT22;6592;47.484;9.726;2023-03-01T08:17:38;2.70;99.90
13052;DHT22;6592;47.484;9.726;2023-03-01T08:20:07;2.60;99.90
13052;DHT22;6592;47.484;9.726;2023-03-01T08:22:39;2.50;99.90
13052;DHT22;6592;47.484;9.726;2023-03-01T08:25:08;2.50;99.90
13052;DHT22;6592;47.484;9.726;2023-03-01T08:27:38;2.60;99.90
13052;DHT22;6592;47.484;9.726;2023-03-01T08:30:07;2.80;99.90
13052;DHT22;6592;47.484;9.726;2023-03-01T08:32:37;2.80;99.90
13052;DHT22;6592;47.484;9.726;2023-03-01T08:35:06;2.90;99.90
13052;DHT22;6592;47.484;9.726;2023-03-01T08:37:34;3.00;99.90
13052;DHT22;6592;47.484;9.726;2023-03-01T08:40:03;3.10;99.90
13052;DHT22;6592;47.484;9.726;2023-03-01T08:42:33;3.20;99.90
13052;DHT22;6592;47.484;9.726;2023-03-01T08:45:04;3.30;99.90
13052;DHT22;6592;47.484;9.726;2023-03-01T08:47:32;3.40;99.90
13052;DHT22;6592;47.484;9.726;2023-03-01T08:50:01;3.40;99.90
13052;DHT22;6592;47.484;9.726;2023-03-01T08:52:29;3.50;99.90
13052;DHT22;6592;47.484;9.726;2023-03-01T08:54:57;3.50;99.90
13052;DHT22;6592;47.484;9.726;2023-03-01T08:57:28;3.60;99.90
13052;DHT22;6592;47.484;9.726;2023-03-01T08:59:56;3.50;99.90
13052;DHT22;6592;47.484;9.726;2023-03-01T09:02:26;3.70;99.90
13052;DHT22;6592;47.484;9.726;2023-03-01T09:04:54;3.80;99.90
13052;DHT22;6592;47.484;9.726;2023-03-01T09:07:22;3.90;99.90
13052;DHT22;6592;47.484;9.726;2023-03-01T09:09:55;4.00;99.90
13052;DHT22;6592;47.484;9.726;2023-03-01T09:12:23;4.10;99.90
13052;DHT22;6592;47.484;9.726;2023-03-01T09:14:52;4.40;99.90
13052;DHT22;6592;47.484;9.726;2023-03-01T09:17:20;4.80;99.90
13052;DHT22;6592;47.484;9.726;2023-03-01T09:19:50;5.20;99.90
13052;DHT22;6592;47.484;9.726;2023-03-01T09:22:19;5.40;99.90
13052;DHT22;6592;47.484;9.726;2023-03-01T09:24:47;5.40;99.90
13052;DHT22;6592;47.484;9.726;2023-03-01T09:27:15;5.50;99.90
13052;DHT22;6592;47.484;9.726;2023-03-01T09:29:45;5.80;99.90
13052;DHT22;6592;47.484;9.726;2023-03-01T09:32:13;6.30;99.90
13052;DHT22;6592;47.484;9.726;2023-03-01T09:34:42;6.80;99.90
13052;DHT22;6592;47.484;9.726;2023-03-01T09:37:28;7.20;99.90
13052;DHT22;6592;47.484;9.726;2023-03-01T09:39:56;7.40;99.90
13052;DHT22;6592;47.484;9.726;2023-03-01T09:42:25;7.50;99.90
13052;DHT22;6592;47.484;9.726;2023-03-01T09:44:58;7.60;99.90
13052;DHT22;6592;47.484;9.726;2023-03-01T09:47:30;7.50;99.90
13052;DHT22;6592;47.484;9.726;2023-03-01T09:50:04;7.60;99.90
13052;DHT22;6592;47.484;9.726;2023-03-01T09:52:40;7.70;99.90
13052;DHT22;6592;47.484;9.726;2023-03-01T09:55:12;7.60;99.90
13052;DHT22;6592;47.484;9.726;2023-03-01T09:57:46;7.60;99.90
13052;DHT22;6592;47.484;9.726;2023-03-01T10:00:27;7.70;99.90
13052;DHT22;6592;47.484;9.726;2023-03-01T10:03:01;7.70;99.90
13052;DHT22;6592;47.484;9.726;2023-03-01T10:05:50;6.90;99.90
13052;DHT22;6592;47.484;9.726;2023-03-01T10:08:37;6.60;99.90
13052;DHT22;6592;47.484;9.726;2023-03-01T10:11:19;6.60;99.90
13052;DHT22;6592;47.484;9.726;2023-03-01T10:13:56;6.10;99.90
13052;DHT22;6592;47.484;9.726;2023-03-01T10:16:32;5.90;99.90
13052;DHT22;6592;47.484;9.726;2023-03-01T10:19:03;6.30;99.90
13052;DHT22;6592;47.484;9.726;2023-03-01T10:21:36;6.30;99.90
13052;DHT22;6592;47.484;9.726;2023-03-01T10:24:12;6.20;99.90
13052;DHT22;6592;47.484;9.726;2023-03-01T10:26:48;6.50;99.90
13052;DHT22;6592;47.484;9.726;2023-03-01T10:29:24;7.00;99.90
13052;DHT22;6592;47.484;9.726;2023-03-01T10:31:54;7.10;99.90
13052;DHT22;6592;47.484;9.726;2023-03-01T10:34:28;7.30;99.90
13052;DHT22;6592;47.484;9.726;2023-03-01T10:37:04;7.20;99.90
13052;DHT22;6592;47.484;9.726;2023-03-01T10:39:54;7.20;99.90
13052;DHT22;6592;47.484;9.726;2023-03-01T10:42:27;7.50;99.90
13052;DHT22;6592;47.484;9.726;2023-03-01T10:44:56;8.00;99.90
13052;DHT22;6592;47.484;9.726;2023-03-01T10:47:26;8.00;99.90
13052;DHT22;6592;47.484;9.726;2023-03-01T10:50:00;7.60;99.90
13052;DHT22;6592;47.484;9.726;2023-03-01T10:52:32;7.90;99.90
13052;DHT22;6592;47.484;9.726;2023-03-01T10:55:23;8.00;99.90
13052;DHT22;6592;47.484;9.726;2023-03-01T10:58:07;8.30;99.90
13052;DHT22;6592;47.484;9.726;2023-03-01T11:00:47;7.70;99.90
13052;DHT22;6592;47.484;9.726;2023-03-01T11:03:19;7.40;99.90
13052;DHT22;6592;47.484;9.726;2023-03-01T11:05:52;7.70;99.90
13052;DHT22;6592;47.484;9.726;2023-03-01T11:08:36;8.30;99.90
13052;DHT22;6592;47.484;9.726;2023-03-01T11:11:19;9.00;99.90
13052;DHT22;6592;47.484;9.726;2023-03-01T11:13:52;9.70;99.90
13052;DHT22;6592;47.484;9.726;2023-03-01T11:16:26;10.10;99.90
13052;DHT22;6592;47.484;9.726;2023-03-01T11:18:57;10.30;99.90
13052;DHT22;6592;47.484;9.726;2023-03-01T11:21:28;10.40;99.90
13052;DHT22;6592;47.484;9.726;2023-03-01T11:23:57;10.50;99.90
13052;DHT22;6592;47.484;9.726;2023-03-01T11:26:30;10.50;99.90
13052;DHT22;6592;47.484;9.726;2023-03-01T11:29:04;10.40;99.90
13052;DHT22;6592;47.484;9.726;2023-03-01T11:31:34;10.50;99.90
13052;DHT22;6592;47.484;9.726;2023-03-01T11:34:12;10.60;99.90
13052;DHT22;6592;47.484;9.726;2023-03-01T11:36:46;10.60;99.90
13052;DHT22;6592;47.484;9.726;2023-03-01T11:39:22;10.40;99.90
13052;DHT22;6592;47.484;9.726;2023-03-01T11:42:02;10.20;99.90
13052;DHT22;6592;47.484;9.726;2023-03-01T11:44:47;9.80;99.90
13052;DHT22;6592;47.484;9.726;2023-03-01T11:47:28;9.40;99.90
13052;DHT22;6592;47.484;9.726;2023-03-01T11:50:15;9.10;99.90
13052;DHT22;6592;47.484;9.726;2023-03-01T11:52:53;9.10;99.90
13052;DHT22;6592;47.484;9.726;2023-03-01T11:55:44;9.10;99.90
13052;DHT22;6592;47.484;9.726;2023-03-01T11:58:32;8.80;99.90
13052;DHT22;6592;47.484;9.726;2023-03-01T12:01:18;8.90;99.90
13052;DHT22;6592;47.484;9.726;2023-03-01T12:04:11;8.80;99.90
13052;DHT22;6592;47.484;9.726;2023-03-01T12:06:56;8.80;99.90
13052;DHT22;6592;47.484;9.726;2023-03-01T12:09:38;8.70;99.90
13052;DHT22;6592;47.484;9.726;2023-03-01T12:12:15;8.70;99.90
13052;DHT22;6592;47.484;9.726;2023-03-01T12:14:55;8.80;99.90
13052;DHT22;6592;47.484;9.726;2023-03-01T12:17:40;8.80;99.90
13052;DHT22;6592;47.484;9.726;2023-03-01T12:20:20;8.90;99.90
13052;DHT22;6592;47.484;9.726;2023-03-01T12:23:13;8.80;99.90
13052;DHT22;6592;47.484;9.726;2023-03-01T12:25:50;9.00;99.90
13052;DHT22;6592;47.484;9.726;2023-03-01T12:28:35;9.00;99.90
13052;DHT22;6592;47.484;9.726;2023-03-01T12:37:28;9.30;99.90
13052;DHT22;6592;47.484;9.726;2023-03-01T12:40:23;9.90;99.90
13052;DHT22;6592;47.484;9.726;2023-03-01T12:43:02;10.50;99.90
13052;DHT22;6592;47.484;9.726;2023-03-01T12:45:47;10.90;99.90
13052;DHT22;6592;47.484;9.726;2023-03-01T12:48:29;11.00;99.90
13052;DHT22;6592;47.484;9.726;2023-03-01T12:51:01;11.10;99.90
13052;DHT22;6592;47.484;9.726;2023-03-01T12:53:35;11.10;99.90
13052;DHT22;6592;47.484;9.726;2023-03-01T12:56:06;10.90;99.90
13052;DHT22;6592;47.484;9.726;2023-03-01T12:58:36;10.60;99.90
13052;DHT22;6592;47.484;9.726;2023-03-01T13:01:23;10.20;99.90
13052;DHT22;6592;47.484;9.726;2023-03-01T13:04:07;10.00;99.90
13052;DHT22;6592;47.484;9.726;2023-03-01T13:06:43;9.80;99.90
13052;DHT22;6592;47.484;9.726;2023-03-01T13:09:21;9.50;99.90
13052;DHT22;6592;47.484;9.726;2023-03-01T13:11:51;9.40;99.90
13052;DHT22;6592;47.484;9.726;2023-03-01T13:14:36;9.50;99.90
13052;DHT22;6592;47.484;9.726;2023-03-01T13:17:31;9.90;99.90
13052;DHT22;6592;47.484;9.726;2023-03-01T13:20:00;10.10;99.90
13052;DHT22;6592;47.484;9.726;2023-03-01T13:22:33;10.10;99.90
13052;DHT22;6592;47.484;9.726;2023-03-01T13:25:16;10.30;99.90
13052;DHT22;6592;47.484;9.726;2023-03-01T13:27:46;10.30;99.90
13052;DHT22;6592;47.484;9.726;2023-03-01T13:30:41;10.00;99.90
13052;DHT22;6592;47.484;9.726;2023-03-01T13:33:39;9.80;99.90
13052;DHT22;6592;47.484;9.726;2023-03-01T13:36:08;9.70;99.90
13052;DHT22;6592;47.484;9.726;2023-03-01T13:38:46;9.80;99.90
13052;DHT22;6592;47.484;9.726;2023-03-01T13:41:17;10.20;99.90
13052;DHT22;6592;47.484;9.726;2023-03-01T13:43:46;10.30;99.90
13052;DHT22;6592;47.484;9.726;2023-03-01T13:46:18;10.30;99.90
13052;DHT22;6592;47.484;9.726;2023-03-01T13:48:50;10.30;99.90
13052;DHT22;6592;47.484;9.726;2023-03-01T13:51:23;10.10;99.90
13052;DHT22;6592;47.484;9.726;2023-03-01T13:53:54;10.00;99.90
13052;DHT22;6592;47.484;9.726;2023-03-01T13:56:27;10.00;99.90
13052;DHT22;6592;47.484;9.726;2023-03-01T13:59:03;9.90;99.90
13052;DHT22;6592;47.484;9.726;2023-03-01T14:01:33;10.10;99.90
13052;DHT22;6592;47.484;9.726;2023-03-01T14:04:14;10.20;99.90
13052;DHT22;6592;47.484;9.726;2023-03-01T14:06:46;10.40;99.90
13052;DHT22;6592;47.484;9.726;2023-03-01T14:09:17;10.30;99.90
13052;DHT22;6592;47.484;9.726;2023-03-01T14:12:14;9.90;99.90
13052;DHT22;6592;47.484;9.726;2023-03-01T14:14:59;9.80;99.90
13052;DHT22;6592;47.484;9.726;2023-03-01T14:17:41;9.90;99.90
13052;DHT22;6592;47.484;9.726;2023-03-01T14:20:16;9.70;99.90
13052;DHT22;6592;47.484;9.726;2023-03-01T14:22:46;9.60;99.90
13052;DHT22;6592;47.484;9.726;2023-03-01T14:25:27;9.20;99.90
13052;DHT22;6592;47.484;9.726;2023-03-01T14:28:01;9.00;99.90
13052;DHT22;6592;47.484;9.726;2023-03-01T14:30:34;8.70;99.90
13052;DHT22;6592;47.484;9.726;2023-03-01T14:33:06;8.50;99.90
13052;DHT22;6592;47.484;9.726;2023-03-01T14:35:35;8.30;99.90
13052;DHT22;6592;47.484;9.726;2023-03-01T14:38:04;8.00;99.90
13052;DHT22;6592;47.484;9.726;2023-03-01T14:40:35;7.90;99.90
13052;DHT22;6592;47.484;9.726;2023-03-01T14:43:11;7.70;99.90
13052;DHT22;6592;47.484;9.726;2023-03-01T14:45:47;7.40;99.90
13052;DHT22;6592;47.484;9.726;2023-03-01T14:48:16;7.30;99.90
13052;DHT22;6592;47.484;9.726;2023-03-01T14:50:45;7.20;99.90
13052;DHT22;6592;47.484;9.726;2023-03-01T14:53:18;7.20;99.90
13052;DHT22;6592;47.484;9.726;2023-03-01T14:55:48;7.10;99.90
13052;DHT22;6592;47.484;9.726;2023-03-01T14:58:22;7.00;99.90
13052;DHT22;6592;47.484;9.726;2023-03-01T15:00:53;6.90;99.90
13052;DHT22;6592;47.484;9.726;2023-03-01T15:03:27;6.80;99.90
13052;DHT22;6592;47.484;9.726;2023-03-01T15:05:59;6.60;99.90
13052;DHT22;6592;47.484;9.726;2023-03-01T15:08:28;6.60;99.90
13052;DHT22;6592;47.484;9.726;2023-03-01T15:11:02;6.50;99.90
13052;DHT22;6592;47.484;9.726;2023-03-01T15:13:35;6.40;99.90
13052;DHT22;6592;47.484;9.726;2023-03-01T15:16:09;6.40;99.90
13052;DHT22;6592;47.484;9.726;2023-03-01T15:18:44;6.30;99.90
13052;DHT22;6592;47.484;9.726;2023-03-01T15:21:18;6.20;99.90
13052;DHT22;6592;47.484;9.726;2023-03-01T15:23:52;6.20;99.90
13052;DHT22;6592;47.484;9.726;2023-03-01T15:26:24;6.20;99.90
13052;DHT22;6592;47.484;9.726;2023-03-01T15:28:56;6.20;99.90
13052;DHT22;6592;47.484;9.726;2023-03-01T15:31:27;6.10;99.90
13052;DHT22;6592;47.484;9.726;2023-03-01T15:34:09;5.90;99.90
13052;DHT22;6592;47.484;9.726;2023-03-01T15:36:43;5.80;99.90
13052;DHT22;6592;47.484;9.726;2023-03-01T15:39:31;5.70;99.90
13052;DHT22;6592;47.484;9.726;2023-03-01T15:42:04;5.60;99.90
13052;DHT22;6592;47.484;9.726;2023-03-01T15:44:36;5.60;99.90
13052;DHT22;6592;47.484;9.726;2023-03-01T15:47:24;5.70;99.90
13052;DHT22;6592;47.484;9.726;2023-03-01T15:49:54;5.60;99.90
13052;DHT22;6592;47.484;9.726;2023-03-01T15:52:26;5.60;99.90
13052;DHT22;6592;47.484;9.726;2023-03-01T15:54:58;5.60;99.90
13052;DHT22;6592;47.484;9.726;2023-03-01T15:57:27;5.50;99.90
13052;DHT22;6592;47.484;9.726;2023-03-01T15:59:57;5.50;99.90
13052;DHT22;6592;47.484;9.726;2023-03-01T16:02:25;5.50;99.90
13052;DHT22;6592;47.484;9.726;2023-03-01T16:04:54;5.40;99.90
13052;DHT22;6592;47.484;9.726;2023-03-01T16:07:23;5.40;99.90
13052;DHT22;6592;47.484;9.726;2023-03-01T16:09:54;5.40;99.90
13052;DHT22;6592;47.484;9.726;2023-03-01T16:12:23;5.30;99.90
13052;DHT22;6592;47.484;9.726;2023-03-01T16:14:52;5.30;99.90
13052;DHT22;6592;47.484;9.726;2023-03-01T16:17:22;5.30;99.90
13052;DHT22;6592;47.484;9.726;2023-03-01T16:19:50;5.20;99.90
13052;DHT22;6592;47.484;9.726;2023-03-01T16:22:18;5.20;99.90
13052;DHT22;6592;47.484;9.726;2023-03-01T16:24:52;5.20;99.90
13052;DHT22;6592;47.484;9.726;2023-03-01T16:27:20;5.10;99.90
13052;DHT22;6592;47.484;9.726;2023-03-01T16:29:48;5.10;99.90
13052;DHT22;6592;47.484;9.726;2023-03-01T16:32:16;5.00;99.90
13052;DHT22;6592;47.484;9.726;2023-03-01T16:34:46;4.90;99.90
13052;DHT22;6592;47.484;9.726;2023-03-01T16:37:16;4.90;99.90